Time;durP1;ratioP1;P1;durP2;ratioP2;P2;SDS_P1;SDS_P2;PMS_P1;PMS_P2;Temp;Humidity;BMP_temperature;BMP_pressure;BME280_temperature;BME280_humidity;BME280_pressure;Samples;Min_cycle;Max_cycle;Signal;HPM_P1;HPM_P2
2021/05/31 06:34:56;;;;;;;;;;;;;;;19.35;nan;100092.38;4954039;23;19942;-84
2021/05/31 06:37:21;;;;;;;;;;;;;;;19.37;nan;100091.31;4915721;29;19979;-84
2021/05/31 06:39:47;;;;;;;;;;;;;;;19.39;nan;100094.72;4915009;29;19923;-84
2021/05/31 06:42:12;;;;;;;;;;;;;;;19.42;nan;100093.66;4916559;29;20486;-85
2021/05/31 06:44:38;;;;;;;;;;;;;;;19.70;nan;100094.25;4915615;29;19923;-83
2021/05/31 06:47:03;;;;;;;;;;;;;;;19.63;nan;100090.34;4916392;29;19978;-83
2021/05/31 06:49:29;;;;;;;;;;;;;;;19.42;nan;100091.81;4916621;29;19922;-83
2021/05/31 06:51:57;;;;;;;;;;;;;;;19.12;nan;100094.97;4916907;29;19927;-83
2021/05/31 06:54:25;;;;;;;;;;;;;;;19.11;nan;100085.19;4916588;29;19934;-83
2021/05/31 06:56:51;;;;;;;;;;;;;;;18.87;nan;100087.84;4917294;29;19923;-82
2021/05/31 06:59:16;;;;;;;;;;;;;;;18.91;nan;100094.72;4916331;29;20302;-82
2021/05/31 07:01:43;;;;;;;;;;;;;;;18.84;nan;100106.84;4916201;29;20271;-85
2021/05/31 07:04:09;;;;;;;;;;;;;;;18.69;nan;100093.53;4916883;29;19951;-82
2021/05/31 07:06:35;;;;;;;;;;;;;;;18.76;nan;100093.09;4919908;29;20287;-87
2021/05/31 07:09:04;;;;;;;;;;;;;;;18.56;nan;100094.53;4920837;29;19923;-86
2021/05/31 07:11:29;;;;;;;;;;;;;;;18.52;nan;100094.75;4919326;29;19977;-87
2021/05/31 07:13:57;;;;;;;;;;;;;;;18.55;nan;100088.31;4920374;29;20029;-87
2021/05/31 07:16:23;;;;;;;;;;;;;;;18.56;nan;100084.66;4920124;29;20243;-87
2021/05/31 07:18:49;;;;;;;;;;;;;;;18.47;nan;100096.03;4926964;29;19934;-87
2021/05/31 07:23:51;;;;;;;;;;;;;;;20.34;68.47;100074.97;5072279;28;19913;-87
2021/05/31 07:26:17;;;;;;;;;;;;;;;19.40;56.57;100076.78;5072680;28;19932;-83
2021/05/31 07:28:42;;;;;;;;;;;;;;;18.84;57.57;100082.69;5077540;28;19922;-87
2021/05/31 07:31:07;;;;;;;;;;;;;;;17.74;59.17;100081.38;5071628;28;19921;-85
2021/05/31 07:33:33;;;;;;;;;;;;;;;17.21;63.77;100074.16;5069437;28;19921;-83
2021/05/31 07:36:01;;;;;;;;;;;;;;;16.99;65.49;100081.88;5069907;28;19917;-83
2021/05/31 07:38:26;;;;;;;;;;;;;;;16.87;65.37;100076.38;5070203;28;19921;-84
2021/05/31 07:40:52;;;;;;;;;;;;;;;16.79;65.87;100077.81;5067646;28;20451;-83
2021/05/31 07:43:17;;;;;;;;;;;;;;;16.79;62.75;100075.97;5069051;28;19924;-83
2021/05/31 07:45:44;;;;;;;;;;;;;;;16.78;63.73;100070.72;5070500;28;19921;-85
2021/05/31 07:48:10;;;;;;;;;;;;;;;16.65;64.34;100078.69;5069662;28;19920;-84
2021/05/31 07:50:35;;;;;;;;;;;;;;;16.77;64.32;100077.91;5069099;28;19990;-83
2021/05/31 07:53:00;;;;;;;;;;;;;;;16.79;64.51;100065.28;5068577;28;19920;-85
2021/05/31 07:55:26;;;;;;;;;;;;;;;16.91;62.47;100077.03;5068196;28;19932;-84
2021/05/31 07:57:52;;;;;;;;;;;;;;;16.68;62.97;100073.13;5064681;28;20062;-84
2021/05/31 08:00:18;;;;;;;;;;;;;;;16.91;62.02;100076.19;5064417;28;19986;-90
2021/05/31 08:02:44;;;;;;;;;;;;;;;17.03;62.86;100075.38;5071540;28;20011;-83
2021/05/31 08:05:14;;;;;;;;;;;;;;;16.82;64.94;100073.13;5088962;28;20081;-84
2021/05/31 08:07:39;;;;;;;;;;;;;;;16.71;63.44;100080.97;5091087;28;19928;-84
2021/05/31 08:10:05;;;;;;;;;;;;;;;16.64;66.18;100074.28;5091104;28;19938;-82
2021/05/31 08:12:30;;;;;;;;;;;;;;;16.91;65.42;100063.66;5093299;28;20299;-84
2021/05/31 08:14:55;;;;;;;;;;;;;;;16.87;66.51;100062.16;5088893;28;19920;-80
2021/05/31 08:17:20;;;;;;;;;;;;;;;17.13;69.27;100065.78;5090704;28;20269;-86
2021/05/31 08:19:46;;;;;;;;;;;;;;;16.93;69.33;100064.44;5090631;28;19920;-82
2021/05/31 08:22:11;;;;;;;;;;;;;;;17.33;67.18;100074.34;5093066;28;19924;-84
2021/05/31 08:24:36;;;;;;;;;;;;;;;17.10;67.94;100065.13;5092021;28;20291;-86
2021/05/31 08:27:02;;;;;;;;;;;;;;;17.33;65.80;100058.28;5097729;28;19920;-87
2021/05/31 08:29:27;;;;;;;;;;;;;;;16.79;64.09;100061.75;5092011;28;20275;-84
2021/05/31 08:31:53;;;;;;;;;;;;;;;15.52;60.16;100058.78;5089775;28;20194;-84
2021/05/31 08:34:18;;;;;;;;;;;;;;;15.02;61.21;100066.09;5081797;28;20283;-83
2021/05/31 08:36:45;;;;;;;;;;;;;;;15.34;68.67;100066.06;5077092;28;19924;-83
2021/05/31 08:39:11;;;;;;;;;;;;;;;15.27;65.58;100056.69;5077046;28;19932;-83
2021/05/31 08:41:36;;;;;;;;;;;;;;;14.95;63.14;100059.41;5076742;28;20295;-84
2021/05/31 08:44:02;;;;;;;;;;;;;;;15.04;64.40;100060.69;5075570;28;20196;-84
2021/05/31 08:46:27;;;;;;;;;;;;;;;14.95;57.91;100054.06;5074805;28;19920;-84
2021/05/31 08:48:52;;;;;;;;;;;;;;;14.39;58.10;100058.03;5066746;28;19925;-83
2021/05/31 08:51:21;;;;;;;;;;;;;;;13.37;60.14;100056.22;5068934;28;19920;-83
2021/05/31 08:53:46;;;;;;;;;;;;;;;13.56;60.31;100049.94;5076183;28;19971;-83
2021/05/31 08:56:12;;;;;;;;;;;;;;;13.94;64.44;100055.94;5075056;28;19959;-86
2021/05/31 08:58:37;;;;;;;;;;;;;;;14.18;70.04;100052.91;5074835;28;19975;-82
2021/05/31 09:01:03;;;;;;;;;;;;;;;14.38;67.76;100065.19;5076411;28;20322;-87
2021/05/31 09:03:28;;;;;;;;;;;;;;;13.56;61.95;100052.59;5075793;28;19955;-87
2021/05/31 09:05:58;;;;;;;;;;;;;;;13.47;63.04;100056.59;5075507;28;19920;-88
2021/05/31 09:08:23;;;;;;;;;;;;;;;13.66;74.42;100053.00;5085008;28;19920;-83
2021/05/31 09:10:53;;;;;;;;;;;;;;;14.16;68.93;100049.50;5090763;28;19927;-84
2021/05/31 09:13:27;;;;;;;;;;;;;;;13.99;68.78;100037.94;5089644;28;20302;-86
2021/05/31 09:16:05;;;;;;;;;;;;;;;14.04;70.77;100034.16;5090258;28;19927;-83
2021/05/31 09:18:30;;;;;;;;;;;;;;;13.90;70.48;100048.22;5090903;28;19921;-84
2021/05/31 09:20:55;;;;;;;;;;;;;;;13.34;69.10;100035.06;5090158;28;19946;-83
2021/05/31 09:23:21;;;;;;;;;;;;;;;13.80;71.80;100043.38;5089832;28;19996;-84
2021/05/31 09:25:46;;;;;;;;;;;;;;;13.74;73.15;100046.34;5090036;28;19931;-84
2021/05/31 09:28:12;;;;;;;;;;;;;;;13.82;70.54;100029.97;5087942;28;19992;-83
2021/05/31 09:30:42;;;;;;;;;;;;;;;13.97;69.54;100021.16;5086879;28;20253;-84
2021/05/31 09:33:17;;;;;;;;;;;;;;;13.97;69.18;100029.16;5083810;28;19920;-84
2021/05/31 09:35:43;;;;;;;;;;;;;;;13.79;69.92;100020.34;5083533;28;19947;-86
2021/05/31 09:38:09;;;;;;;;;;;;;;;13.94;69.38;100020.47;5083970;28;19942;-85
2021/05/31 09:40:34;;;;;;;;;;;;;;;13.86;70.22;100012.88;5080225;28;19921;-83
2021/05/31 09:43:00;;;;;;;;;;;;;;;13.98;68.48;100036.19;5078764;28;19985;-83
2021/05/31 09:45:26;;;;;;;;;;;;;;;13.98;68.88;100020.22;5081654;28;19982;-84
2021/05/31 09:47:51;;;;;;;;;;;;;;;13.98;68.95;100019.38;5080912;28;19920;-82
2021/05/31 09:50:24;;;;;;;;;;;;;;;13.57;72.02;100023.25;5080088;28;20318;-82
2021/05/31 09:53:08;;;;;;;;;;;;;;;13.33;73.48;100016.53;5076015;28;19921;-83
2021/05/31 09:55:38;;;;;;;;;;;;;;;13.31;75.13;100007.72;5080130;28;20010;-83
2021/05/31 09:58:10;;;;;;;;;;;;;;;13.52;74.39;100011.13;5082168;28;19931;-82
2021/05/31 10:00:35;;;;;;;;;;;;;;;13.58;73.22;100024.13;5067094;28;19920;-84
2021/05/31 10:03:42;;;;;;;;;;;;;;;12.88;74.47;100008.91;5065395;28;19932;-84
2021/05/31 10:06:17;;;;;;;;;;;;;;;12.47;74.59;100022.38;5051621;28;20218;-85
2021/05/31 10:08:43;;;;;;;;;;;;;;;13.02;71.04;100025.97;5037665;28;20402;-89
2021/05/31 10:11:09;;;;;;;;;;;;;;;12.78;74.35;100015.63;5055311;28;19932;-90
2021/05/31 10:13:37;;;;;;;;;;;;;;;13.00;68.73;100007.47;5038076;28;20343;-88
2021/05/31 10:16:04;;;;;;;;;;;;;;;13.34;73.45;100005.81;5054266;28;19932;-90
2021/05/31 10:18:32;;;;;;;;;;;;;;;13.37;72.93;100007.44;5054988;28;19920;-83
2021/05/31 10:20:58;;;;;;;;;;;;;;;13.37;73.09;100005.66;5093584;28;19985;-88
2021/05/31 10:23:24;;;;;;;;;;;;;;;13.38;72.00;100015.34;5088020;28;19924;-84
2021/05/31 10:26:01;;;;;;;;;;;;;;;12.89;74.99;100001.78;5088903;28;19927;-88
2021/05/31 10:28:29;;;;;;;;;;;;;;;12.98;72.36;100004.00;5067550;28;20353;-86
2021/05/31 10:30:59;;;;;;;;;;;;;;;13.18;76.02;100005.69;5068439;28;20218;-85
2021/05/31 10:33:25;;;;;;;;;;;;;;;13.22;72.63;99999.25;5083630;28;19920;-84
2021/05/31 10:35:52;;;;;;;;;;;;;;;12.79;74.84;100006.69;5064147;28;19921;-82
2021/05/31 10:38:20;;;;;;;;;;;;;;;12.81;77.22;100015.50;5070140;28;20014;-83
2021/05/31 10:40:50;;;;;;;;;;;;;;;13.25;70.79;100009.75;5066367;28;19920;-87
2021/05/31 10:43:17;;;;;;;;;;;;;;;12.99;71.84;99999.56;5065925;28;19935;-82
2021/05/31 10:45:43;;;;;;;;;;;;;;;13.05;71.30;100009.88;5096429;28;20295;-83
2021/05/31 10:48:22;;;;;;;;;;;;;;;13.14;68.96;100004.09;5077387;28;19931;-83
2021/05/31 10:50:58;;;;;;;;;;;;;;;13.26;68.72;99995.50;5102098;28;19920;-84
2021/05/31 10:53:32;;;;;;;;;;;;;;;13.38;67.14;99993.19;5080509;28;19920;-85
2021/05/31 10:56:11;;;;;;;;;;;;;;;13.43;67.69;99992.03;5074583;28;19992;-83
2021/05/31 10:58:40;;;;;;;;;;;;;;;13.44;66.74;99992.88;5076684;28;19963;-84
2021/05/31 11:01:08;;;;;;;;;;;;;;;13.47;66.72;99990.06;5079443;28;19931;-85
2021/05/31 11:04:03;;;;;;;;;;;;;;;13.44;67.12;99983.09;5104704;28;19995;-84
2021/05/31 11:06:30;;;;;;;;;;;;;;;13.32;68.19;99980.16;5073834;28;19920;-83
2021/05/31 11:09:12;;;;;;;;;;;;;;;13.00;71.17;99980.00;5087311;28;19927;-83
2021/05/31 11:11:39;;;;;;;;;;;;;;;13.18;69.34;99981.75;5104635;28;19927;-84
2021/05/31 11:14:05;;;;;;;;;;;;;;;12.76;73.26;99980.25;5084411;28;19921;-84
2021/05/31 11:16:51;;;;;;;;;;;;;;;12.89;72.48;99978.75;5088310;28;20341;-83
2021/05/31 11:19:17;;;;;;;;;;;;;;;13.21;68.75;99978.03;5097899;28;19920;-86
2021/05/31 11:21:45;;;;;;;;;;;;;;;12.57;73.04;99976.78;5099546;28;19923;-83
2021/05/31 11:24:13;;;;;;;;;;;;;;;12.75;71.50;99967.91;5069984;28;19955;-83
2021/05/31 11:26:40;;;;;;;;;;;;;;;12.54;72.70;99976.00;5080311;28;19982;-83
2021/05/31 11:29:07;;;;;;;;;;;;;;;12.79;70.21;99976.59;5080188;28;19921;-83
2021/05/31 11:31:33;;;;;;;;;;;;;;;12.81;70.67;99972.94;5075262;28;19974;-85
2021/05/31 11:34:00;;;;;;;;;;;;;;;13.18;67.02;99973.75;5072100;28;19924;-88
2021/05/31 11:36:35;;;;;;;;;;;;;;;13.32;66.03;99974.84;5077496;28;19943;-88
2021/05/31 11:39:02;;;;;;;;;;;;;;;13.26;66.93;99973.38;5076183;28;20479;-84
2021/05/31 11:41:32;;;;;;;;;;;;;;;13.31;66.54;99959.84;5081291;28;19928;-85
2021/05/31 11:43:57;;;;;;;;;;;;;;;13.38;66.98;99959.44;5085755;28;19932;-85
2021/05/31 11:46:22;;;;;;;;;;;;;;;13.44;64.70;99948.50;5082338;28;19935;-85
2021/05/31 11:48:48;;;;;;;;;;;;;;;13.38;65.86;99947.94;5085377;28;20010;-83
2021/05/31 11:51:14;;;;;;;;;;;;;;;13.03;67.73;99959.41;5079308;28;19921;-83
2021/05/31 11:53:47;;;;;;;;;;;;;;;13.12;67.49;99952.78;5072332;28;20203;-84
2021/05/31 11:56:13;;;;;;;;;;;;;;;13.13;68.08;99951.84;5085540;28;19921;-83
2021/05/31 11:58:39;;;;;;;;;;;;;;;12.86;69.84;99946.97;5085672;28;20392;-84
2021/05/31 12:01:07;;;;;;;;;;;;;;;13.01;70.11;99949.81;5086760;28;19948;-83
2021/05/31 12:03:33;;;;;;;;;;;;;;;13.09;68.80;99939.63;5086069;28;20467;-84
2021/05/31 12:05:58;;;;;;;;;;;;;;;12.86;71.37;99933.69;5085173;28;19920;-84
2021/05/31 12:08:23;;;;;;;;;;;;;;;13.04;70.92;99937.19;5086806;28;19946;-85
2021/05/31 12:10:49;;;;;;;;;;;;;;;13.16;70.18;99929.53;5089732;28;19931;-84
2021/05/31 12:13:15;;;;;;;;;;;;;;;13.12;70.57;99923.53;5088716;28;19931;-84
2021/05/31 12:15:41;;;;;;;;;;;;;;;13.17;69.99;99934.78;5085481;28;19958;-84
